Terminal Aerodrome Forecast
Issued by NWS Mt. Holly, NJ

Home | Current Version | Previous Version | Text Only | Print | Product List | Glossary On
Versions: 1 2 3 4 5 6 7 8 9 10 11 12 13 14 15 16 17 18 19 20 21 22 23 24 25 26 27 28 29 30
000
FTUS41 KPHI 260155 AAA
TAFABE
TAF AMD
KABE 260155Z 2602/2624 06012KT P6SM -SHRA SCT008 OVC015
      TEMPO 2602/2604 3SM -SHRA BR OVC008
     FM260400 06008KT 6SM -SHRA BR OVC005
     FM260600 06008KT 3SM BR OVC005
     FM261600 04005KT 5SM BR OVC010
     FM261800 02005KT P6SM OVC020=

USA.gov is the U.S. government's official web portal to all federal, state and local government web resources and services.